Terminal Aerodrome Forecast
Issued by NWS Sterling, VA

Current Version | Previous Version | Text Only | Print | Product List | Glossary Off
Versions: 1 2 3 4 5 6 7 8 9 10 11 12 13 14 15 16 17 18 19 20 21 22 23

000
FTUS41 KLWX 281124
TAFMRB
TAF
KMRB 281124Z 2812/2912 00000KT P6SM BKN120
     FM281800 00000KT P6SM TSRA BKN070CB
     FM290000 00000KT 5SM SHRA VCTS OVC070CB
     FM290600 VRB03KT 6SM SHRA VCTS OVC040CB
     FM290900 31004KT 6SM SHRA VCTS OVC025CB
     FM291000 31005KT 6SM SHRA VCTS OVC040CB=

USA.gov is the U.S. government's official web portal to all federal, state and local government web resources and services.